Time;durP1;ratioP1;P1;durP2;ratioP2;P2;SDS_P1;SDS_P2;PMS_P1;PMS_P2;Temp;Humidity;BMP_temperature;BMP_pressure;BME280_temperature;BME280_humidity;BME280_pressure;Samples;Min_cycle;Max_cycle;Signal;HPM_P1;HPM_P2
2022/01/09 00:01:15;;;;;;;29.07;26.47;;;4.50;99.90;;;;;;5101865;27;20047;-75
2022/01/09 00:03:41;;;;;;;28.83;26.23;;;4.40;99.90;;;;;;5101328;27;20027;-75
2022/01/09 00:06:08;;;;;;;26.90;24.57;;;4.40;99.90;;;;;;5098872;27;20154;-75
2022/01/09 00:08:34;;;;;;;32.30;29.30;;;4.30;99.90;;;;;;5089509;28;20039;-75
2022/01/09 00:11:01;;;;;;;26.93;24.53;;;4.40;99.90;;;;;;5123303;28;20409;-75
2022/01/09 00:13:27;;;;;;;27.40;24.97;;;4.40;99.90;;;;;;5090361;28;20509;-75
2022/01/09 00:15:53;;;;;;;26.03;23.83;;;4.40;99.90;;;;;;5121365;28;20181;-75
2022/01/09 00:18:19;;;;;;;26.47;24.27;;;4.50;99.90;;;;;;5107262;28;20042;-72
2022/01/09 00:20:45;;;;;;;27.97;25.50;;;4.50;99.90;;;;;;5104734;28;20105;-72
2022/01/09 00:23:12;;;;;;;27.93;25.43;;;4.50;99.90;;;;;;5106307;28;20050;-72
2022/01/09 00:25:41;;;;;;;25.83;23.63;;;4.50;99.90;;;;;;5108189;28;20040;-72
2022/01/09 00:28:08;;;;;;;26.03;23.73;;;4.50;99.90;;;;;;5105474;28;20039;-73
2022/01/09 00:30:34;;;;;;;27.87;25.40;;;4.50;99.90;;;;;;5103494;28;20039;-74
2022/01/09 00:33:00;;;;;;;28.27;25.60;;;4.50;99.90;;;;;;5121192;28;20084;-72
2022/01/09 00:35:26;;;;;;;27.73;25.37;;;4.50;99.90;;;;;;5073692;28;20050;-72
2022/01/09 00:37:52;;;;;;;29.20;26.60;;;4.40;99.90;;;;;;5106556;28;20126;-72
2022/01/09 00:40:18;;;;;;;28.50;26.00;;;4.50;99.90;;;;;;5106870;28;20122;-72
2022/01/09 00:42:45;;;;;;;32.33;29.23;;;4.50;99.90;;;;;;5125070;27;20122;-72
2022/01/09 00:45:13;;;;;;;32.23;29.23;;;4.50;99.90;;;;;;5122763;28;20424;-72
2022/01/09 00:47:38;;;;;;;30.73;27.93;;;4.50;99.90;;;;;;5121735;28;20504;-72
2022/01/09 00:50:05;;;;;;;29.90;27.33;;;4.50;99.90;;;;;;5125131;27;20050;-73
2022/01/09 00:52:31;;;;;;;32.10;29.03;;;4.50;99.90;;;;;;5123802;28;20042;-73
2022/01/09 00:54:57;;;;;;;31.40;28.67;;;4.50;99.90;;;;;;5125598;28;20047;-73
2022/01/09 00:57:23;;;;;;;36.33;32.80;;;4.60;99.90;;;;;;5125244;27;20043;-73
2022/01/09 00:59:49;;;;;;;37.57;33.87;;;4.50;99.90;;;;;;5124640;27;20130;-74
2022/01/09 01:02:15;;;;;;;33.57;30.57;;;4.50;99.90;;;;;;5120425;28;20565;-73
2022/01/09 01:04:42;;;;;;;34.30;31.30;;;4.50;99.90;;;;;;5089390;28;20089;-73
2022/01/09 01:07:08;;;;;;;35.40;32.10;;;4.50;99.90;;;;;;5092560;27;20051;-73
2022/01/09 01:09:34;;;;;;;40.67;36.63;;;4.50;99.90;;;;;;5122890;27;20517;-74
2022/01/09 01:12:01;;;;;;;37.60;33.90;;;4.60;99.90;;;;;;5128917;27;20117;-75
2022/01/09 01:14:28;;;;;;;33.30;30.10;;;4.50;99.90;;;;;;5147048;27;20043;-75
2022/01/09 01:16:55;;;;;;;35.30;31.70;;;4.60;99.90;;;;;;5112747;27;20081;-75
2022/01/09 01:19:21;;;;;;;35.13;31.87;;;4.50;99.90;;;;;;5097265;27;20107;-75
2022/01/09 01:21:47;;;;;;;37.93;33.87;;;4.50;99.90;;;;;;5113397;27;20043;-76
2022/01/09 01:24:13;;;;;;;36.57;32.93;;;4.60;99.90;;;;;;5105531;27;20394;-75
2022/01/09 01:26:39;;;;;;;39.87;35.67;;;4.60;99.90;;;;;;5089135;27;20031;-75
2022/01/09 01:29:05;;;;;;;36.23;32.70;;;4.60;99.90;;;;;;5119522;27;20042;-75
2022/01/09 01:31:31;;;;;;;35.60;32.13;;;4.60;99.90;;;;;;5094023;27;20190;-75
2022/01/09 01:33:57;;;;;;;34.37;31.17;;;4.60;99.90;;;;;;5123909;27;20038;-75
2022/01/09 01:36:22;;;;;;;35.57;31.97;;;4.60;99.90;;;;;;5124959;27;20054;-75
2022/01/09 01:38:49;;;;;;;43.17;34.93;;;4.60;99.90;;;;;;5077355;27;20472;-73
2022/01/09 01:41:15;;;;;;;41.17;36.67;;;4.60;99.90;;;;;;5110004;27;20058;-75
2022/01/09 01:43:41;;;;;;;34.67;31.17;;;4.60;99.90;;;;;;5107530;27;20039;-75
2022/01/09 01:46:10;;;;;;;44.23;36.70;;;4.60;99.90;;;;;;5091406;27;20043;-75
2022/01/09 01:48:36;;;;;;;46.40;36.63;;;4.60;99.90;;;;;;5093655;27;20061;-73
2022/01/09 01:51:03;;;;;;;37.33;33.30;;;4.60;99.90;;;;;;5110674;27;20707;-73
2022/01/09 01:53:32;;;;;;;35.40;31.60;;;4.50;99.90;;;;;;5128990;27;20039;-73
2022/01/09 01:56:00;;;;;;;37.87;33.37;;;4.60;99.90;;;;;;5111595;27;20047;-73
2022/01/09 01:58:27;;;;;;;31.33;28.03;;;4.60;99.90;;;;;;5145449;27;20039;-73
2022/01/09 02:00:53;;;;;;;32.90;29.40;;;4.60;99.90;;;;;;5091158;27;20692;-73
2022/01/09 02:03:19;;;;;;;30.50;27.40;;;4.60;99.90;;;;;;5147606;27;20689;-73
2022/01/09 02:05:46;;;;;;;31.00;27.70;;;4.60;99.90;;;;;;5111963;27;20099;-73
2022/01/09 02:08:13;;;;;;;30.47;27.23;;;4.60;99.90;;;;;;5129822;27;20295;-73
2022/01/09 02:10:45;;;;;;;35.33;30.20;;;4.70;99.90;;;;;;5127725;27;20130;-73
2022/01/09 02:13:11;;;;;;;33.63;28.00;;;4.70;99.90;;;;;;5128949;27;20043;-73
2022/01/09 02:15:46;;;;;;;36.23;28.53;;;4.60;99.90;;;;;;5145278;27;20046;-73
2022/01/09 02:18:18;;;;;;;30.40;26.30;;;4.70;99.90;;;;;;5147765;27;20035;-73
2022/01/09 02:20:45;;;;;;;32.90;26.53;;;4.70;99.90;;;;;;5129567;27;20046;-73
2022/01/09 02:23:13;;;;;;;30.80;25.63;;;4.80;99.90;;;;;;5130255;27;20050;-73
2022/01/09 02:25:40;;;;;;;35.33;26.20;;;4.80;99.90;;;;;;5142932;27;20599;-73
2022/01/09 02:28:07;;;;;;;37.50;27.80;;;4.80;99.90;;;;;;5112416;27;20039;-73
2022/01/09 02:30:34;;;;;;;35.90;26.27;;;4.80;99.90;;;;;;5124543;27;20129;-73
2022/01/09 02:33:05;;;;;;;36.80;26.30;;;4.90;99.90;;;;;;5129311;27;20031;-73
2022/01/09 02:35:31;;;;;;;28.83;22.23;;;4.90;99.90;;;;;;5128919;27;20570;-73
2022/01/09 02:37:57;;;;;;;32.97;24.20;;;4.90;99.90;;;;;;5147148;27;20074;-73
2022/01/09 02:40:24;;;;;;;35.93;25.23;;;5.00;99.90;;;;;;5148348;27;20080;-73
2022/01/09 02:42:51;;;;;;;31.10;22.93;;;5.00;99.90;;;;;;5148660;27;20058;-72
2022/01/09 02:45:22;;;;;;;27.47;19.97;;;5.00;99.90;;;;;;5146321;27;20035;-72
2022/01/09 02:47:49;;;;;;;21.80;16.73;;;5.00;99.90;;;;;;5127761;27;20493;-72
2022/01/09 02:52:54;;;;;;;23.37;16.80;;;5.20;99.90;;;;;;5148965;27;20175;-72
2022/01/09 02:55:25;;;;;;;32.13;19.03;;;5.20;99.90;;;;;;5148450;27;20117;-73
2022/01/09 02:57:59;;;;;;;28.97;17.97;;;5.20;99.90;;;;;;5128567;27;20078;-73
2022/01/09 03:00:32;;;;;;;27.33;16.30;;;5.30;99.90;;;;;;5144144;27;20039;-72
2022/01/09 03:02:59;;;;;;;30.33;15.57;;;5.30;99.90;;;;;;5145350;27;20107;-73
2022/01/09 03:05:26;;;;;;;29.77;15.67;;;5.40;99.90;;;;;;5122825;27;20094;-73
2022/01/09 03:07:53;;;;;;;25.40;13.27;;;5.40;99.90;;;;;;5148434;27;20185;-72
2022/01/09 03:10:20;;;;;;;25.70;12.73;;;5.50;99.90;;;;;;5131003;27;20560;-72
2022/01/09 03:12:48;;;;;;;29.63;10.63;;;5.50;99.90;;;;;;5112836;27;20087;-73
2022/01/09 03:15:14;;;;;;;28.73;10.57;;;5.60;99.90;;;;;;5109976;27;20055;-72
2022/01/09 03:17:41;;;;;;;28.20;8.40;;;5.70;99.90;;;;;;5117329;27;20512;-71
2022/01/09 03:20:11;;;;;;;32.67;8.93;;;5.80;99.90;;;;;;5130874;27;20043;-72
2022/01/09 03:22:37;;;;;;;28.40;7.97;;;5.80;99.90;;;;;;5149165;27;20045;-72
2022/01/09 03:25:03;;;;;;;28.13;8.07;;;5.90;99.90;;;;;;5107935;27;20047;-72
2022/01/09 03:27:29;;;;;;;34.60;8.50;;;5.90;99.90;;;;;;5127824;27;20142;-72
2022/01/09 03:29:55;;;;;;;34.77;7.73;;;5.90;99.90;;;;;;5127151;27;20122;-72
2022/01/09 03:32:21;;;;;;;37.70;8.53;;;6.00;99.90;;;;;;5129698;27;20051;-72
2022/01/09 03:34:47;;;;;;;40.43;8.63;;;6.00;99.90;;;;;;5139290;27;20051;-72
2022/01/09 03:37:13;;;;;;;44.13;7.47;;;6.00;99.90;;;;;;5148988;27;20114;-72
2022/01/09 03:39:39;;;;;;;38.23;7.57;;;6.10;99.90;;;;;;5113586;27;20043;-72
2022/01/09 03:42:05;;;;;;;41.60;7.00;;;6.10;99.90;;;;;;5130311;27;20057;-72
2022/01/09 03:44:31;;;;;;;48.08;8.52;;;6.20;99.90;;;;;;5121795;27;20544;-71
2022/01/09 03:46:57;;;;;;;54.33;8.10;;;6.20;99.90;;;;;;5147955;27;20043;-72
2022/01/09 03:49:23;;;;;;;49.93;8.20;;;6.20;99.90;;;;;;5136245;27;20034;-74
2022/01/09 03:51:53;;;;;;;52.20;7.30;;;6.20;99.90;;;;;;5113594;27;20717;-75
2022/01/09 03:54:23;;;;;;;43.28;8.32;;;6.20;99.90;;;;;;5113370;27;20134;-75
2022/01/09 03:56:50;;;;;;;46.80;8.02;;;6.30;99.90;;;;;;5129588;27;20663;-75
2022/01/09 03:59:17;;;;;;;49.80;7.88;;;6.30;99.90;;;;;;5130568;27;20489;-75
2022/01/09 04:01:44;;;;;;;46.83;8.33;;;6.30;99.90;;;;;;5094909;27;20034;-75
2022/01/09 04:04:10;;;;;;;49.43;6.93;;;6.40;99.90;;;;;;5113813;27;20089;-75
2022/01/09 04:06:39;;;;;;;46.77;6.87;;;6.40;99.90;;;;;;5096413;27;20114;-76
2022/01/09 04:09:17;;;;;;;39.77;6.87;;;6.50;99.90;;;;;;5112022;27;20134;-75
2022/01/09 04:11:44;;;;;;;53.83;7.97;;;6.40;99.90;;;;;;5114317;27;20054;-75
2022/01/09 04:14:10;;;;;;;42.03;7.00;;;6.40;99.90;;;;;;5109504;28;20248;-75
2022/01/09 04:16:36;;;;;;;43.25;6.43;;;6.40;99.90;;;;;;5075674;28;20053;-75
2022/01/09 04:19:02;;;;;;;44.75;7.55;;;6.40;99.90;;;;;;5114288;27;20038;-76
2022/01/09 04:21:28;;;;;;;37.73;6.60;;;6.40;99.90;;;;;;5113734;27;20178;-75
2022/01/09 04:23:54;;;;;;;45.07;6.87;;;6.40;99.90;;;;;;5113338;27;20152;-75
2022/01/09 04:26:21;;;;;;;39.87;7.00;;;6.40;99.90;;;;;;5097402;27;20057;-75
2022/01/09 04:28:48;;;;;;;42.30;7.53;;;6.40;99.90;;;;;;5113550;27;20039;-75
2022/01/09 04:31:15;;;;;;;36.93;7.13;;;6.40;99.90;;;;;;5098685;28;20406;-75
2022/01/09 04:33:42;;;;;;;35.00;6.47;;;6.40;99.90;;;;;;5094917;27;20158;-75
2022/01/09 04:36:08;;;;;;;38.70;6.07;;;6.40;99.90;;;;;;5096962;27;20055;-75
2022/01/09 04:38:33;;;;;;;37.37;7.30;;;6.30;99.90;;;;;;5096082;27;20050;-75
2022/01/09 04:40:59;;;;;;;29.43;5.77;;;6.40;99.90;;;;;;5094992;27;20043;-75
2022/01/09 04:43:27;;;;;;;38.33;6.97;;;6.40;99.90;;;;;;5129858;27;20126;-75
2022/01/09 04:45:53;;;;;;;36.70;6.33;;;6.50;99.90;;;;;;5126559;27;20499;-75
2022/01/09 04:48:19;;;;;;;35.80;5.63;;;6.50;99.90;;;;;;5117625;28;20052;-75
2022/01/09 04:50:46;;;;;;;27.30;5.47;;;6.40;99.90;;;;;;5109997;27;20034;-77
2022/01/09 04:53:12;;;;;;;34.03;5.90;;;6.40;99.90;;;;;;5102281;27;20053;-75
2022/01/09 04:55:45;;;;;;;28.40;5.35;;;6.40;99.90;;;;;;5099381;27;20039;-75
2022/01/09 04:58:11;;;;;;;27.83;5.57;;;6.40;99.90;;;;;;5116252;27;20054;-75
2022/01/09 05:00:40;;;;;;;34.40;5.83;;;6.40;99.90;;;;;;5095249;27;20039;-75
2022/01/09 05:03:06;;;;;;;32.30;5.13;;;6.40;99.90;;;;;;5081416;27;20117;-75
2022/01/09 05:05:33;;;;;;;31.27;4.87;;;6.30;99.90;;;;;;5116159;27;20388;-75
2022/01/09 05:07:59;;;;;;;29.57;5.40;;;6.30;99.90;;;;;;5128826;27;20059;-75
2022/01/09 05:10:26;;;;;;;23.90;5.50;;;6.30;99.90;;;;;;5113020;27;20051;-75
2022/01/09 05:12:52;;;;;;;31.30;5.33;;;6.30;99.90;;;;;;5112199;27;20039;-75
2022/01/09 05:15:19;;;;;;;25.03;4.63;;;6.40;99.90;;;;;;5109712;27;20092;-75
2022/01/09 05:17:46;;;;;;;27.87;5.57;;;6.30;99.90;;;;;;5074485;28;20549;-76
2022/01/09 05:20:12;;;;;;;27.03;4.90;;;6.30;99.90;;;;;;5092355;28;20131;-74
2022/01/09 05:22:38;;;;;;;29.27;5.60;;;6.20;99.90;;;;;;5075574;28;20063;-74
2022/01/09 05:25:08;;;;;;;27.27;5.20;;;6.20;99.90;;;;;;5074414;28;20600;-74
2022/01/09 05:27:35;;;;;;;27.85;4.72;;;6.20;99.90;;;;;;5108925;28;20043;-74
2022/01/09 05:30:01;;;;;;;29.57;5.63;;;6.20;99.90;;;;;;5074407;28;20494;-75
2022/01/09 05:32:27;;;;;;;27.40;5.33;;;6.20;99.90;;;;;;5088830;28;20047;-75
2022/01/09 05:34:52;;;;;;;23.83;4.00;;;6.20;99.90;;;;;;5079718;28;20052;-74
2022/01/09 05:37:18;;;;;;;24.23;5.23;;;6.20;99.90;;;;;;5072302;28;20055;-75
2022/01/09 05:39:44;;;;;;;25.40;4.87;;;6.20;99.90;;;;;;5055200;28;20040;-74
2022/01/09 05:42:13;;;;;;;25.43;4.60;;;6.20;99.90;;;;;;5072282;28;20048;-75
2022/01/09 05:44:40;;;;;;;25.83;4.23;;;6.20;99.90;;;;;;5071595;28;20071;-72
2022/01/09 05:47:06;;;;;;;20.40;4.40;;;6.10;99.90;;;;;;5087711;28;20036;-75
2022/01/09 05:49:32;;;;;;;19.90;4.20;;;6.10;99.90;;;;;;5088579;28;20466;-74
2022/01/09 05:52:01;;;;;;;23.90;4.77;;;6.10;99.90;;;;;;5088372;28;20051;-75
2022/01/09 05:54:27;;;;;;;22.47;4.00;;;6.00;99.90;;;;;;5067654;28;20048;-74
2022/01/09 05:56:53;;;;;;;21.93;3.70;;;6.10;99.90;;;;;;5071276;28;20084;-74
2022/01/09 05:59:20;;;;;;;22.03;3.97;;;6.00;99.90;;;;;;5092408;28;20048;-75
2022/01/09 06:01:47;;;;;;;20.40;4.30;;;6.00;99.90;;;;;;5085968;28;20040;-74
2022/01/09 06:04:13;;;;;;;28.00;4.60;;;6.00;99.90;;;;;;5071795;28;20154;-75
2022/01/09 06:06:40;;;;;;;21.70;4.43;;;6.00;99.90;;;;;;5071229;28;20131;-74
2022/01/09 06:09:08;;;;;;;21.10;4.23;;;5.90;99.90;;;;;;5107077;27;20091;-75
2022/01/09 06:11:34;;;;;;;21.83;4.53;;;5.90;99.90;;;;;;5094326;27;20055;-74
2022/01/09 06:13:59;;;;;;;24.73;4.67;;;5.90;99.90;;;;;;5102809;27;20045;-75
2022/01/09 06:16:25;;;;;;;24.40;4.40;;;5.90;99.90;;;;;;5115955;27;20053;-74
2022/01/09 06:18:51;;;;;;;18.67;4.37;;;5.90;99.90;;;;;;5132414;27;20199;-74
2022/01/09 06:21:18;;;;;;;20.30;4.67;;;5.90;99.90;;;;;;5133210;27;20561;-74
2022/01/09 06:23:44;;;;;;;20.13;3.80;;;5.90;99.90;;;;;;5082066;27;20045;-74
2022/01/09 06:26:10;;;;;;;21.07;3.63;;;5.90;99.90;;;;;;5115604;27;20065;-74
2022/01/09 06:28:36;;;;;;;26.50;4.10;;;5.90;99.90;;;;;;5098817;27;20061;-75
2022/01/09 06:31:02;;;;;;;21.43;3.93;;;5.80;99.90;;;;;;5122621;27;20054;-72
2022/01/09 06:33:31;;;;;;;22.93;5.00;;;5.90;99.90;;;;;;5111752;27;20051;-73
2022/01/09 06:35:57;;;;;;;20.77;3.60;;;5.90;99.90;;;;;;5129478;27;20141;-73
2022/01/09 06:38:22;;;;;;;23.13;4.47;;;5.80;99.90;;;;;;5112041;27;20043;-73
2022/01/09 06:40:48;;;;;;;23.20;4.07;;;5.90;99.90;;;;;;5129173;27;20069;-73
2022/01/09 06:43:14;;;;;;;21.97;4.20;;;5.90;99.90;;;;;;5129411;27;20064;-72
2022/01/09 06:45:40;;;;;;;20.83;4.23;;;5.90;99.90;;;;;;5130356;27;20129;-72
2022/01/09 06:48:06;;;;;;;23.07;4.33;;;5.90;99.90;;;;;;5127099;27;20045;-72
2022/01/09 06:50:32;;;;;;;20.80;5.27;;;5.90;99.90;;;;;;5129688;27;20046;-72
2022/01/09 06:52:59;;;;;;;25.40;5.03;;;5.90;99.90;;;;;;5128690;27;20038;-73
2022/01/09 06:55:25;;;;;;;16.93;3.50;;;5.80;99.90;;;;;;5148035;27;20053;-72
2022/01/09 06:57:53;;;;;;;19.80;3.53;;;5.90;99.90;;;;;;5109319;27;20087;-72
2022/01/09 07:00:20;;;;;;;19.60;4.10;;;5.80;99.90;;;;;;5139328;27;20540;-72
2022/01/09 07:02:46;;;;;;;27.70;4.70;;;5.80;99.90;;;;;;5117535;27;20331;-72
2022/01/09 07:05:13;;;;;;;22.57;4.40;;;5.80;99.90;;;;;;5125702;27;20576;-72
2022/01/09 07:07:39;;;;;;;23.37;4.70;;;5.80;99.90;;;;;;5128617;27;20053;-72
2022/01/09 07:10:09;;;;;;;22.47;4.27;;;5.80;99.90;;;;;;5145784;27;20083;-72
2022/01/09 07:12:35;;;;;;;21.67;3.22;;;5.70;99.90;;;;;;5125982;27;20034;-72
2022/01/09 07:15:02;;;;;;;19.87;3.10;;;5.70;99.90;;;;;;5142928;27;20099;-72
2022/01/09 07:17:32;;;;;;;19.13;4.43;;;5.70;99.90;;;;;;5127047;27;20500;-72
2022/01/09 07:19:58;;;;;;;21.20;3.67;;;5.70;99.90;;;;;;5073927;27;20034;-72
2022/01/09 07:22:24;;;;;;;16.23;3.27;;;5.70;99.90;;;;;;5110625;27;20035;-72
2022/01/09 07:24:50;;;;;;;16.97;3.30;;;5.60;99.90;;;;;;5123346;27;20045;-72
2022/01/09 07:27:16;;;;;;;17.53;3.50;;;5.50;99.90;;;;;;5127866;27;20115;-72
2022/01/09 07:29:42;;;;;;;15.07;2.90;;;5.60;99.90;;;;;;5093941;27;20500;-72
2022/01/09 07:32:08;;;;;;;17.07;3.33;;;5.60;99.90;;;;;;5146352;27;20053;-74
2022/01/09 07:34:34;;;;;;;16.63;2.80;;;5.50;99.90;;;;;;5144467;27;20046;-73
2022/01/09 07:37:03;;;;;;;12.57;2.30;;;5.50;99.90;;;;;;5127786;27;20034;-73
2022/01/09 07:39:32;;;;;;;12.17;2.40;;;5.50;99.90;;;;;;5127438;27;20048;-74
2022/01/09 07:42:01;;;;;;;16.33;2.80;;;5.50;99.90;;;;;;5127783;27;20039;-71
2022/01/09 07:44:27;;;;;;;15.37;2.93;;;5.40;99.90;;;;;;5127770;27;20481;-73
2022/01/09 07:46:53;;;;;;;11.60;2.27;;;5.50;99.90;;;;;;5146011;27;20053;-73
2022/01/09 07:49:19;;;;;;;13.30;2.33;;;5.40;99.90;;;;;;5093733;27;20091;-74
2022/01/09 07:51:45;;;;;;;16.00;2.97;;;5.40;99.90;;;;;;5145502;27;20581;-73
2022/01/09 07:54:11;;;;;;;11.17;2.33;;;5.40;99.90;;;;;;5093597;27;20153;-73
2022/01/09 07:56:37;;;;;;;14.67;2.50;;;5.40;99.90;;;;;;5126332;27;20121;-74
2022/01/09 07:59:03;;;;;;;13.53;2.00;;;5.30;99.90;;;;;;5108884;27;20424;-74
2022/01/09 08:01:29;;;;;;;12.97;2.30;;;5.30;99.90;;;;;;5126814;27;20109;-72
2022/01/09 08:03:56;;;;;;;11.27;2.97;;;5.30;99.90;;;;;;5110600;27;20039;-71
2022/01/09 08:06:22;;;;;;;12.37;3.03;;;5.30;99.90;;;;;;5110364;27;20043;-71
2022/01/09 08:08:48;;;;;;;14.80;2.93;;;5.30;99.90;;;;;;5145919;27;20106;-72
2022/01/09 08:11:15;;;;;;;12.50;2.70;;;5.30;99.90;;;;;;5103393;27;20069;-72
2022/01/09 08:13:41;;;;;;;12.13;2.87;;;5.20;99.90;;;;;;5126588;27;20118;-72
2022/01/09 08:16:07;;;;;;;13.70;2.83;;;5.30;99.90;;;;;;5107890;27;20061;-72
2022/01/09 08:18:33;;;;;;;13.60;2.73;;;5.30;99.90;;;;;;5110888;27;20043;-74
2022/01/09 08:20:59;;;;;;;12.60;2.03;;;5.20;99.90;;;;;;5145923;27;20034;-74
2022/01/09 08:23:25;;;;;;;15.03;2.90;;;5.20;99.90;;;;;;5127841;27;20038;-74
2022/01/09 08:25:50;;;;;;;10.67;2.77;;;5.20;99.90;;;;;;5097449;27;20038;-74
2022/01/09 08:28:16;;;;;;;14.57;2.73;;;5.20;99.90;;;;;;5114096;27;20073;-74
2022/01/09 08:30:42;;;;;;;14.53;2.77;;;5.20;99.90;;;;;;5115384;27;20039;-74
2022/01/09 08:33:08;;;;;;;11.97;2.17;;;5.20;99.90;;;;;;5113325;27;20038;-74
2022/01/09 08:35:34;;;;;;;13.10;2.73;;;5.30;99.90;;;;;;5130156;27;20107;-75
2022/01/09 08:38:00;;;;;;;11.07;2.40;;;5.30;99.90;;;;;;5114234;27;20122;-74
2022/01/09 08:40:25;;;;;;;14.27;2.73;;;5.30;99.90;;;;;;5114123;27;20043;-74
2022/01/09 08:42:53;;;;;;;18.63;3.10;;;5.40;99.90;;;;;;5114031;27;20129;-74
2022/01/09 08:45:20;;;;;;;12.80;2.70;;;5.40;99.90;;;;;;5113395;27;20035;-74
2022/01/09 08:47:46;;;;;;;11.47;2.40;;;5.40;99.90;;;;;;5113165;27;20043;-75
2022/01/09 08:50:14;;;;;;;13.10;2.63;;;5.40;99.90;;;;;;5131354;27;20034;-74
2022/01/09 08:52:40;;;;;;;18.07;2.87;;;5.40;99.90;;;;;;5131512;27;20086;-74
2022/01/09 08:55:07;;;;;;;12.13;2.57;;;5.30;99.90;;;;;;5096262;27;20084;-74
2022/01/09 08:57:33;;;;;;;12.10;2.90;;;5.40;99.90;;;;;;5131576;27;20042;-74
2022/01/09 08:59:59;;;;;;;13.27;2.50;;;5.40;99.90;;;;;;5131067;27;20393;-74
2022/01/09 09:02:25;;;;;;;12.27;3.00;;;5.40;99.90;;;;;;5094399;27;20047;-74
2022/01/09 09:04:51;;;;;;;12.40;2.63;;;5.40;99.90;;;;;;5113159;27;20031;-74
2022/01/09 09:07:23;;;;;;;15.50;4.27;;;5.40;99.90;;;;;;5080312;27;20030;-74
2022/01/09 09:09:49;;;;;;;13.30;3.30;;;5.50;99.90;;;;;;5113299;27;20503;-74
2022/01/09 09:12:15;;;;;;;14.60;2.83;;;5.50;99.90;;;;;;5095764;27;20050;-73
2022/01/09 09:14:41;;;;;;;11.03;2.70;;;5.50;99.90;;;;;;5129582;27;20037;-73
2022/01/09 09:17:07;;;;;;;14.00;3.63;;;5.50;99.90;;;;;;5125181;27;20127;-75
2022/01/09 09:19:33;;;;;;;11.60;2.53;;;5.50;99.90;;;;;;5110484;27;21014;-75
2022/01/09 09:21:59;;;;;;;15.63;3.13;;;5.50;99.90;;;;;;5112960;27;20076;-75
2022/01/09 09:24:25;;;;;;;11.87;2.70;;;5.50;99.90;;;;;;5131565;27;20464;-75
2022/01/09 09:26:51;;;;;;;14.70;2.87;;;5.50;99.90;;;;;;5113277;27;20046;-74
2022/01/09 09:29:17;;;;;;;13.73;2.93;;;5.50;99.90;;;;;;5113479;27;20245;-75
2022/01/09 09:31:43;;;;;;;16.07;3.30;;;5.50;99.90;;;;;;5096416;27;20069;-74
2022/01/09 09:34:08;;;;;;;13.13;2.83;;;5.50;99.90;;;;;;5111961;27;20183;-75
2022/01/09 09:36:37;;;;;;;15.00;2.47;;;5.50;99.90;;;;;;5093832;27;20042;-75
2022/01/09 09:39:05;;;;;;;11.30;2.50;;;5.60;99.90;;;;;;5111558;27;20051;-74
2022/01/09 09:41:31;;;;;;;13.33;2.73;;;5.60;99.90;;;;;;5114582;27;20042;-75
2022/01/09 09:43:57;;;;;;;13.13;3.07;;;5.60;99.90;;;;;;5127984;27;20050;-75
2022/01/09 09:46:24;;;;;;;13.07;2.50;;;5.60;99.90;;;;;;5107888;27;20035;-75
2022/01/09 09:48:51;;;;;;;10.07;2.73;;;5.50;99.90;;;;;;5100776;27;20078;-74
2022/01/09 09:51:24;;;;;;;13.90;3.10;;;5.60;99.90;;;;;;5107210;27;20038;-75
2022/01/09 09:53:51;;;;;;;12.90;2.87;;;5.60;99.90;;;;;;5102819;27;20047;-75
2022/01/09 09:56:20;;;;;;;14.83;2.77;;;5.60;99.90;;;;;;5085982;27;20545;-74
2022/01/09 09:58:49;;;;;;;15.57;2.50;;;5.60;99.90;;;;;;5101060;27;20073;-75
2022/01/09 10:01:25;;;;;;;10.17;2.87;;;5.50;99.90;;;;;;5108508;27;20046;-75
2022/01/09 10:04:03;;;;;;;13.03;2.80;;;5.60;99.90;;;;;;5123122;27;20134;-75
2022/01/09 10:06:43;;;;;;;11.07;2.50;;;5.60;99.90;;;;;;5105996;27;20597;-75
2022/01/09 10:09:15;;;;;;;13.05;2.83;;;5.60;99.90;;;;;;5106433;27;20075;-73
2022/01/09 10:11:45;;;;;;;11.33;2.30;;;5.60;99.90;;;;;;5114737;27;20131;-73
2022/01/09 10:14:29;;;;;;;14.25;2.35;;;5.70;99.90;;;;;;5136711;27;20398;-73
2022/01/09 10:17:06;;;;;;;8.73;2.07;;;5.70;99.90;;;;;;5119903;27;20501;-72
2022/01/09 10:19:43;;;;;;;7.30;1.53;;;5.70;99.90;;;;;;5140427;27;20393;-73
2022/01/09 10:22:24;;;;;;;8.40;1.83;;;5.80;99.90;;;;;;5110529;27;20250;-75
2022/01/09 10:24:50;;;;;;;4.97;1.47;;;5.80;99.90;;;;;;5131522;27;20581;-74
2022/01/09 10:27:34;;;;;;;5.63;1.20;;;5.70;99.90;;;;;;5101297;27;20054;-73
2022/01/09 10:30:04;;;;;;;8.73;1.90;;;5.70;99.90;;;;;;5111493;27;20390;-72
2022/01/09 10:32:32;;;;;;;6.28;1.40;;;5.70;99.90;;;;;;5138614;27;20378;-73
2022/01/09 10:35:19;;;;;;;6.03;1.30;;;5.70;99.90;;;;;;5122283;27;20047;-73
2022/01/09 10:37:50;;;;;;;6.47;1.20;;;5.70;99.90;;;;;;5134411;27;20043;-73
2022/01/09 10:40:29;;;;;;;7.43;1.33;;;5.80;99.90;;;;;;5125666;27;20129;-75
2022/01/09 10:43:12;;;;;;;8.90;1.37;;;5.80;99.90;;;;;;5121917;27;20063;-74
2022/01/09 10:45:41;;;;;;;7.20;1.77;;;5.80;99.90;;;;;;5098413;27;20047;-75
2022/01/09 10:48:19;;;;;;;7.60;1.70;;;5.80;99.90;;;;;;5110014;27;20039;-75
2022/01/09 10:50:45;;;;;;;6.63;1.40;;;5.90;99.90;;;;;;5119555;27;20054;-74
2022/01/09 10:53:30;;;;;;;7.73;1.40;;;5.90;99.90;;;;;;5098492;27;20043;-75
2022/01/09 10:56:19;;;;;;;8.93;1.80;;;5.90;99.90;;;;;;5112795;27;20083;-75
2022/01/09 10:58:46;;;;;;;10.77;2.17;;;6.00;99.90;;;;;;5110118;27;20040;-72
2022/01/09 11:01:16;;;;;;;12.00;2.17;;;6.10;99.90;;;;;;5112649;27;20047;-72
2022/01/09 11:03:49;;;;;;;9.30;1.80;;;6.10;99.90;;;;;;5129628;27;20058;-73
2022/01/09 11:06:16;;;;;;;7.05;1.80;;;6.20;99.90;;;;;;5124646;27;20408;-72
2022/01/09 11:08:43;;;;;;;13.30;2.27;;;6.30;99.90;;;;;;5101623;27;20066;-73
2022/01/09 11:11:19;;;;;;;9.03;1.90;;;6.30;99.90;;;;;;5113271;27;20070;-74
2022/01/09 11:13:54;;;;;;;8.10;1.98;;;6.40;99.90;;;;;;5114887;27;20515;-73
2022/01/09 11:16:41;;;;;;;10.43;2.13;;;6.40;99.90;;;;;;5099131;27;20031;-73
2022/01/09 11:19:12;;;;;;;8.45;2.00;;;6.50;99.90;;;;;;5127393;27;20170;-73
2022/01/09 11:21:51;;;;;;;9.47;2.10;;;6.50;99.90;;;;;;5109833;27;20051;-73
2022/01/09 11:24:32;;;;;;;11.77;2.43;;;6.60;99.90;;;;;;5097368;27;20043;-75
2022/01/09 11:27:07;;;;;;;14.87;2.27;;;6.60;99.90;;;;;;5137882;27;20049;-75
2022/01/09 11:29:48;;;;;;;12.77;2.13;;;6.60;99.90;;;;;;5128230;27;20099;-75
2022/01/09 11:32:32;;;;;;;13.23;2.77;;;6.60;99.90;;;;;;5121280;27;20133;-75
2022/01/09 11:35:22;;;;;;;11.45;2.50;;;6.70;99.90;;;;;;5129088;27;20452;-75
2022/01/09 11:38:12;;;;;;;12.25;2.75;;;6.70;99.90;;;;;;5112796;27;20050;-75
2022/01/09 11:40:38;;;;;;;10.68;1.70;;;6.70;99.90;;;;;;5093430;27;20121;-75
2022/01/09 11:43:14;;;;;;;10.02;1.90;;;6.70;99.90;;;;;;5095195;27;20053;-75
2022/01/09 11:46:02;;;;;;;12.57;2.00;;;6.70;99.90;;;;;;5106763;27;20035;-75
2022/01/09 11:49:06;;;;;;;11.50;2.60;;;6.80;99.90;;;;;;5080644;27;20039;-75
2022/01/09 11:51:34;;;;;;;13.00;2.60;;;6.80;99.90;;;;;;5040601;28;20123;-75
2022/01/09 11:54:18;;;;;;;9.23;1.95;;;6.80;99.90;;;;;;5097047;27;20054;-75
2022/01/09 11:57:03;;;;;;;9.20;2.00;;;6.80;99.90;;;;;;5101519;27;20050;-75
2022/01/09 11:59:38;;;;;;;10.67;2.63;;;6.90;99.90;;;;;;5115354;27;20035;-76
2022/01/09 12:02:28;;;;;;;9.52;2.30;;;6.90;99.90;;;;;;5093155;27;20031;-75
2022/01/09 12:05:01;;;;;;;11.13;2.00;;;6.90;99.90;;;;;;5097436;27;20050;-75
2022/01/09 12:07:36;;;;;;;11.88;2.25;;;6.90;99.90;;;;;;5094876;27;20044;-76
2022/01/09 12:10:35;;;;;;;10.75;2.13;;;6.90;99.90;;;;;;5089863;27;20058;-75
2022/01/09 12:13:03;;;;;;;12.95;2.65;;;7.00;99.90;;;;;;5100066;27;20124;-74
2022/01/09 12:15:41;;;;;;;10.30;2.60;;;6.90;99.90;;;;;;5103644;27;20589;-76
2022/01/09 12:18:27;;;;;;;8.68;2.03;;;6.90;99.90;;;;;;5102463;27;20050;-75
2022/01/09 12:20:53;;;;;;;8.88;2.58;;;6.90;99.90;;;;;;5109793;27;20047;-76
2022/01/09 12:23:21;;;;;;;11.00;2.07;;;7.00;99.90;;;;;;5083972;27;20440;-76
2022/01/09 12:25:50;;;;;;;12.93;1.97;;;7.10;99.90;;;;;;5093223;27;20059;-76
2022/01/09 12:28:23;;;;;;;13.27;2.60;;;7.10;99.90;;;;;;5102755;27;20219;-76
2022/01/09 12:30:59;;;;;;;13.30;2.55;;;7.20;99.90;;;;;;5109402;27;20127;-76
2022/01/09 12:33:25;;;;;;;14.43;2.57;;;7.20;99.90;;;;;;5110839;27;20035;-75
2022/01/09 12:36:13;;;;;;;12.50;2.80;;;7.30;99.90;;;;;;5100006;27;20385;-76
2022/01/09 12:38:43;;;;;;;13.57;2.80;;;7.30;99.90;;;;;;5101783;27;20674;-75
2022/01/09 12:41:27;;;;;;;16.98;2.70;;;7.30;99.90;;;;;;5111684;27;20040;-76
2022/01/09 12:44:00;;;;;;;12.77;2.25;;;7.30;99.90;;;;;;5104738;27;20055;-75
2022/01/09 12:46:29;;;;;;;13.02;2.95;;;7.20;99.90;;;;;;5116021;27;20047;-75
2022/01/09 12:49:01;;;;;;;14.15;3.00;;;7.20;99.90;;;;;;5094419;27;20061;-75
2022/01/09 12:51:30;;;;;;;13.88;3.53;;;7.10;99.90;;;;;;5109913;27;20176;-76
2022/01/09 12:54:00;;;;;;;14.65;3.00;;;7.20;99.90;;;;;;5105307;27;20699;-76
2022/01/09 12:56:28;;;;;;;14.13;2.85;;;7.20;99.90;;;;;;5109243;27;20119;-76